FNHU/NOV METAR and TAF weather

Enter ICAO airport designator
Station Type Date Time Source
FNHU METAR 2020/11/28 15:00 UTC NOAA

FNHU 281500Z 08012KT 8000 VCSH SCT016 FEW026CB BKN070 24/17 Q1018


Station Type Date Time Source
FNHU Decoded METAR 2020/11/28 15:00 UTC NOAA

Huambo Nova Lisboa , Angola (FNHU) 12-48S 015-45E 1701M
Nov 28, 2020 - 10:00 AM EST / 2020.11.28 1500 UTC
Wind: from the E (080 degrees) at 14 MPH (12 KT):0
Visibility: 4 mile(s):0
Sky conditions: mostly cloudy
Weather: showers in the vicinity; Cumulonimbus clouds observed
Temperature: 75 F (24 C)
Dew Point: 62 F (17 C)
Relative Humidity: 64%
Pressure (altimeter): 30.06 in. Hg (1018 hPa)
ob: FNHU 281500Z 08012KT 8000 VCSH SCT016 FEW026CB BKN070 24/17 Q1018
cycle: 15

Station Type Date Time Source
FNHU TAF 2020/11/28 12:00 UTC NOAA

TAF FNHU 281100Z 2812/2824 VRB03KT 9999 FEW015 PROB30
TEMPO 2815/2821 13006KT 8000 -DZ SCT012 FEW020CB

Example: see airport list